createdAt,value
2019-05-30T00:00:17.669Z,11.57
2019-05-30T00:02:45.075Z,12.17
2019-05-30T00:05:16.926Z,10.43
2019-05-30T00:07:48.511Z,11.00
2019-05-30T00:10:20.399Z,10.27
2019-05-30T00:12:51.969Z,9.93
2019-05-30T00:15:23.553Z,11.37
2019-05-30T00:17:55.195Z,8.90
2019-05-30T00:20:26.776Z,9.37
2019-05-30T00:22:58.840Z,10.23
2019-05-30T00:25:30.492Z,10.20
2019-05-30T00:28:05.123Z,8.87
2019-05-30T00:30:36.655Z,8.57
2019-05-30T00:33:08.229Z,8.30
2019-05-30T00:35:39.807Z,8.60
2019-05-30T00:38:11.380Z,10.53
2019-05-30T00:40:43.050Z,9.60
2019-05-30T00:43:14.699Z,9.27
2019-05-30T00:45:46.286Z,10.70
2019-05-30T00:48:17.830Z,9.90
2019-05-30T00:50:49.431Z,10.23
2019-05-30T00:53:20.992Z,10.33
2019-05-30T00:55:52.585Z,9.73
2019-05-30T00:58:24.162Z,9.93
2019-05-30T01:00:56.751Z,9.50
2019-05-30T01:03:28.382Z,10.33
2019-05-30T01:06:00.820Z,10.67
2019-05-30T01:08:32.422Z,10.83
2019-05-30T01:11:05.198Z,9.33
2019-05-30T01:13:36.933Z,15.03
2019-05-30T01:16:08.530Z,9.47
2019-05-30T01:18:40.108Z,9.77
2019-05-30T01:21:11.671Z,8.77
2019-05-30T01:23:46.309Z,9.63
2019-05-30T01:26:17.875Z,10.33
2019-05-30T01:28:49.511Z,13.40
2019-05-30T01:31:21.179Z,9.93
2019-05-30T01:33:52.765Z,11.57
2019-05-30T01:36:25.377Z,12.27
2019-05-30T01:38:57.685Z,10.80
2019-05-30T01:41:29.327Z,11.93
2019-05-30T01:44:01.929Z,12.20
2019-05-30T01:46:33.585Z,11.00
2019-05-30T01:49:06.675Z,13.20
2019-05-30T01:51:38.731Z,9.80
2019-05-30T01:54:10.322Z,9.50
2019-05-30T01:56:41.889Z,9.03
2019-05-30T01:59:13.524Z,9.23
2019-05-30T02:01:45.117Z,9.00
2019-05-30T02:04:16.684Z,9.80
2019-05-30T02:06:48.305Z,8.40
2019-05-30T02:09:19.810Z,8.67
2019-05-30T02:11:51.351Z,9.40
2019-05-30T02:14:22.935Z,9.47
2019-05-30T02:16:54.479Z,8.87
2019-05-30T02:19:26.058Z,9.83
2019-05-30T02:21:57.608Z,9.93
2019-05-30T02:24:29.179Z,9.80
2019-05-30T02:27:02.089Z,10.20
2019-05-30T02:29:33.803Z,10.07
2019-05-30T02:32:07.051Z,10.70
2019-05-30T02:34:38.663Z,11.07
2019-05-30T02:37:12.586Z,9.83
2019-05-30T02:39:43.482Z,11.97
2019-05-30T02:42:15.054Z,12.27
2019-05-30T02:44:46.619Z,12.60
2019-05-30T02:47:22.188Z,8.87
2019-05-30T02:49:51.443Z,7.67
2019-05-30T02:52:22.999Z,8.20
2019-05-30T02:54:54.589Z,7.73
2019-05-30T02:57:26.155Z,7.60
2019-05-30T02:59:57.725Z,8.10
2019-05-30T03:02:29.302Z,7.90
2019-05-30T03:05:01.681Z,8.10
2019-05-30T03:07:34.688Z,10.83
2019-05-30T03:10:07.643Z,8.43
2019-05-30T03:12:40.325Z,9.47
2019-05-30T03:15:14.607Z,8.40
2019-05-30T03:17:45.451Z,8.77
2019-05-30T03:20:22.836Z,8.43
2019-05-30T03:22:50.629Z,8.37
2019-05-30T03:25:22.205Z,9.30
2019-05-30T03:27:56.405Z,8.13
2019-05-30T03:30:29.622Z,7.43
2019-05-30T03:33:15.706Z,6.43
2019-05-30T03:35:41.774Z,7.60
2019-05-30T03:38:10.476Z,7.63
2019-05-30T03:40:42.403Z,7.73
2019-05-30T03:43:15.992Z,8.17
2019-05-30T03:45:48.267Z,8.20
2019-05-30T03:48:21.798Z,8.60
2019-05-30T03:50:55.639Z,11.27
2019-05-30T03:53:27.190Z,7.60
2019-05-30T03:56:09.319Z,7.83
2019-05-30T03:58:51.931Z,8.73
2019-05-30T04:01:31.540Z,8.17
2019-05-30T04:04:16.913Z,10.60
2019-05-30T04:06:54.257Z,10.63
2019-05-30T04:09:27.661Z,8.67
2019-05-30T04:12:16.727Z,11.03
2019-05-30T04:14:52.657Z,10.20
2019-05-30T04:17:25.207Z,10.90
2019-05-30T04:19:56.761Z,12.50
2019-05-30T04:22:28.340Z,13.60
2019-05-30T04:24:59.913Z,12.17
2019-05-30T04:27:31.517Z,9.40
2019-05-30T04:30:03.092Z,10.00
2019-05-30T04:32:35.752Z,9.00
2019-05-30T04:35:08.058Z,9.33
2019-05-30T04:37:39.725Z,10.33
2019-05-30T04:40:13.271Z,13.80
2019-05-30T04:42:44.778Z,10.40
2019-05-30T04:45:17.917Z,10.33
2019-05-30T04:47:49.822Z,10.60
2019-05-30T04:50:21.391Z,9.07
2019-05-30T04:52:53.084Z,11.20
2019-05-30T04:55:24.644Z,9.50
2019-05-30T04:57:56.288Z,7.97
2019-05-30T05:00:27.988Z,7.40
2019-05-30T05:02:59.543Z,7.53
2019-05-30T05:05:31.128Z,7.57
2019-05-30T05:08:02.699Z,7.47
2019-05-30T05:10:34.263Z,7.30
2019-05-30T05:13:05.844Z,6.60
2019-05-30T05:15:37.430Z,6.63
2019-05-30T05:18:09.004Z,6.87
2019-05-30T05:20:40.580Z,7.40
2019-05-30T05:23:13.079Z,7.30
2019-05-30T05:25:59.829Z,7.40
2019-05-30T05:28:18.099Z,7.03
2019-05-30T05:30:50.786Z,8.13
2019-05-30T05:33:22.640Z,8.07
2019-05-30T05:35:54.246Z,8.77
2019-05-30T05:38:25.818Z,10.00
2019-05-30T05:40:57.408Z,9.23
2019-05-30T05:43:28.991Z,8.63
2019-05-30T05:46:00.561Z,9.80
2019-05-30T05:48:32.193Z,9.10
2019-05-30T05:51:04.155Z,9.80
2019-05-30T05:53:35.776Z,10.03
2019-05-30T05:56:07.359Z,10.00
2019-05-30T05:58:38.969Z,9.60
2019-05-30T06:01:10.553Z,9.50
2019-05-30T06:03:42.152Z,10.03
2019-05-30T06:06:13.745Z,9.57
2019-05-30T06:08:45.331Z,9.63
2019-05-30T06:11:16.897Z,9.00
2019-05-30T06:13:48.433Z,9.20
2019-05-30T06:16:20.024Z,9.37
2019-05-30T06:18:51.571Z,9.50
2019-05-30T06:21:23.504Z,9.30
2019-05-30T06:23:55.107Z,9.67
2019-05-30T06:26:27.953Z,9.77
2019-05-30T06:28:59.778Z,10.53
2019-05-30T06:31:31.372Z,11.47
2019-05-30T06:34:02.922Z,11.50
2019-05-30T06:36:34.519Z,11.70
2019-05-30T06:39:08.704Z,12.77
2019-05-30T06:41:40.321Z,11.50
2019-05-30T06:44:11.930Z,11.93
2019-05-30T06:46:43.522Z,11.67
2019-05-30T06:49:15.110Z,13.53
2019-05-30T06:51:46.687Z,11.93
2019-05-30T06:54:18.251Z,11.93
2019-05-30T06:56:49.888Z,10.83
2019-05-30T06:59:21.482Z,10.60
2019-05-30T07:01:53.134Z,10.93
2019-05-30T07:04:25.597Z,11.33
2019-05-30T07:06:58.271Z,11.27
2019-05-30T07:09:30.987Z,10.47
2019-05-30T07:12:02.668Z,11.03
2019-05-30T07:14:34.268Z,10.50
2019-05-30T07:17:05.869Z,11.40
2019-05-30T07:19:37.905Z,11.00
2019-05-30T07:22:09.604Z,11.30
2019-05-30T07:24:41.161Z,11.43
2019-05-30T07:27:12.773Z,11.20
2019-05-30T07:29:44.393Z,9.87
2019-05-30T07:32:15.999Z,10.17
2019-05-30T07:34:47.588Z,10.97
2019-05-30T07:37:19.219Z,9.90
2019-05-30T07:39:50.800Z,10.20
2019-05-30T07:42:22.389Z,10.20
2019-05-30T07:44:53.990Z,10.07
2019-05-30T07:47:26.011Z,10.30
2019-05-30T07:49:57.582Z,10.33
2019-05-30T07:52:29.164Z,10.73
2019-05-30T07:55:00.780Z,11.00
2019-05-30T07:57:32.936Z,9.43
2019-05-30T08:00:06.157Z,9.20
2019-05-30T08:02:38.046Z,9.67
2019-05-30T08:05:23.478Z,9.60
2019-05-30T08:07:44.088Z,8.97
2019-05-30T08:10:18.995Z,9.20
2019-05-30T08:12:50.597Z,9.10
2019-05-30T08:15:22.187Z,10.20
2019-05-30T08:17:54.776Z,10.33
2019-05-30T08:20:27.537Z,9.20
2019-05-30T08:22:59.205Z,9.77
2019-05-30T08:25:30.825Z,10.43
2019-05-30T08:28:03.489Z,9.80
2019-05-30T08:30:35.122Z,8.97
2019-05-30T08:33:06.746Z,9.50
2019-05-30T08:35:49.075Z,8.80
2019-05-30T08:38:13.374Z,9.50
2019-05-30T08:40:45.001Z,8.80
2019-05-30T08:43:16.588Z,8.73
2019-05-30T08:45:48.215Z,8.60
2019-05-30T08:48:19.800Z,7.37
2019-05-30T08:50:52.604Z,6.87
2019-05-30T08:53:24.178Z,5.30
2019-05-30T08:55:55.852Z,6.60
2019-05-30T08:58:27.425Z,6.70
2019-05-30T09:00:59.039Z,5.93
2019-05-30T09:03:30.615Z,4.13
2019-05-30T09:06:03.997Z,4.50
2019-05-30T09:08:35.990Z,4.40
2019-05-30T09:11:07.661Z,5.20
2019-05-30T09:13:40.326Z,5.10
2019-05-30T09:16:12.044Z,5.23
2019-05-30T09:18:43.655Z,4.80
2019-05-30T09:21:15.286Z,4.90
2019-05-30T09:23:47.973Z,4.73
2019-05-30T09:26:19.821Z,4.80
2019-05-30T09:28:51.535Z,4.70
2019-05-30T09:31:23.139Z,4.20
2019-05-30T09:33:54.766Z,4.33
2019-05-30T09:36:26.337Z,4.60
2019-05-30T09:38:58.530Z,5.20
2019-05-30T09:41:30.181Z,4.50
2019-05-30T09:44:01.755Z,5.00
2019-05-30T09:46:35.178Z,5.70
2019-05-30T09:49:06.885Z,4.80
2019-05-30T09:51:38.459Z,4.50
2019-05-30T09:54:10.166Z,3.80
2019-05-30T09:56:42.031Z,4.20
2019-05-30T09:59:14.855Z,4.77
2019-05-30T10:01:46.435Z,4.50
2019-05-30T10:04:18.410Z,4.10
2019-05-30T10:06:50.502Z,3.60
2019-05-30T10:09:22.185Z,2.70
2019-05-30T10:11:53.768Z,2.30
2019-05-30T10:14:25.875Z,5.30
2019-05-30T10:16:58.108Z,2.80
2019-05-30T10:19:29.908Z,2.50
2019-05-30T10:22:01.862Z,3.10
2019-05-30T10:24:33.556Z,2.70
2019-05-30T10:27:05.148Z,1.90
2019-05-30T10:29:37.306Z,1.70
2019-05-30T10:32:08.887Z,1.73
2019-05-30T10:34:40.494Z,2.00
2019-05-30T10:37:12.070Z,1.83
2019-05-30T10:39:45.510Z,2.07
2019-05-30T10:42:16.940Z,2.40
2019-05-30T10:44:49.980Z,2.30
2019-05-30T10:47:21.839Z,2.30
2019-05-30T10:49:53.642Z,2.40
2019-05-30T10:52:26.270Z,2.50
2019-05-30T10:54:57.957Z,2.27
2019-05-30T10:57:29.721Z,1.90
2019-05-30T11:00:01.295Z,2.30
2019-05-30T11:02:32.910Z,1.90
2019-05-30T11:05:04.914Z,2.70
2019-05-30T11:08:02.122Z,2.50
2019-05-30T11:10:39.760Z,2.20
2019-05-30T11:13:14.865Z,2.40
2019-05-30T11:15:48.756Z,1.80
2019-05-30T11:18:20.711Z,1.90
2019-05-30T11:20:52.438Z,2.00
2019-05-30T11:23:24.055Z,1.90
2019-05-30T11:25:56.721Z,1.97
2019-05-30T11:28:28.419Z,1.80
2019-05-30T11:31:04.393Z,1.93
2019-05-30T11:33:34.349Z,1.70
2019-05-30T11:36:05.944Z,2.00
2019-05-30T11:38:37.528Z,1.87
2019-05-30T11:41:09.147Z,1.87
2019-05-30T11:43:40.746Z,1.83
2019-05-30T11:46:12.337Z,1.77
2019-05-30T11:48:43.914Z,1.87
2019-05-30T11:51:15.502Z,1.97
2019-05-30T11:53:47.128Z,2.00
2019-05-30T11:56:19.023Z,2.10
2019-05-30T11:58:51.828Z,2.10
2019-05-30T12:01:23.649Z,2.00
2019-05-30T12:03:56.464Z,2.03
2019-05-30T12:06:28.111Z,2.20
2019-05-30T12:08:59.694Z,2.30
2019-05-30T12:11:31.325Z,1.87
2019-05-30T12:14:02.964Z,2.37
2019-05-30T12:16:34.728Z,2.37
2019-05-30T12:19:06.400Z,2.60
2019-05-30T12:21:37.991Z,2.27
2019-05-30T12:24:09.891Z,2.30
2019-05-30T12:26:41.472Z,2.30
2019-05-30T12:29:13.088Z,2.60
2019-05-30T12:31:44.645Z,2.20
2019-05-30T12:34:16.242Z,2.23
2019-05-30T12:36:47.864Z,2.40
2019-05-30T12:39:19.489Z,2.33
2019-05-30T12:41:51.063Z,2.20
2019-05-30T12:44:22.658Z,2.30
2019-05-30T12:46:55.437Z,2.80
2019-05-30T12:49:28.261Z,2.37
2019-05-30T12:52:00.619Z,2.83
2019-05-30T12:54:32.407Z,2.70
2019-05-30T12:57:03.991Z,2.80
2019-05-30T12:59:36.765Z,2.50
2019-05-30T13:02:08.343Z,2.63
2019-05-30T13:04:39.930Z,2.50
2019-05-30T13:07:11.527Z,2.70
2019-05-30T13:09:43.144Z,2.57
2019-05-30T13:12:14.740Z,2.70
2019-05-30T13:14:46.368Z,2.43
2019-05-30T13:17:17.996Z,2.50
2019-05-30T13:19:49.578Z,3.13
2019-05-30T13:22:21.193Z,2.50
2019-05-30T13:24:53.095Z,2.60
2019-05-30T13:27:24.713Z,3.03
2019-05-30T13:29:56.316Z,2.50
2019-05-30T13:32:27.905Z,4.80
2019-05-30T13:35:01.581Z,2.63
2019-05-30T13:37:33.233Z,2.23
2019-05-30T13:40:13.769Z,2.60
2019-05-30T13:42:38.850Z,2.10
2019-05-30T13:45:10.826Z,2.60
2019-05-30T13:47:42.633Z,2.87
2019-05-30T13:50:15.799Z,2.20
2019-05-30T13:52:47.413Z,2.30
2019-05-30T13:55:19.209Z,2.50
2019-05-30T13:57:50.851Z,2.47
2019-05-30T14:00:22.968Z,2.20
2019-05-30T14:02:56.662Z,2.13
2019-05-30T14:05:28.228Z,2.47
2019-05-30T14:07:59.968Z,2.97
2019-05-30T14:10:31.917Z,2.20
2019-05-30T14:13:04.521Z,2.63
2019-05-30T14:15:37.365Z,2.63
2019-05-30T14:18:09.379Z,2.20
2019-05-30T14:20:40.950Z,2.00
2019-05-30T14:23:12.581Z,2.10
2019-05-30T14:25:44.134Z,2.10
2019-05-30T14:28:15.720Z,2.00
2019-05-30T14:30:48.422Z,2.10
2019-05-30T14:33:20.069Z,2.20
2019-05-30T14:35:51.617Z,2.30
2019-05-30T14:38:23.232Z,2.27
2019-05-30T14:40:54.799Z,2.40
2019-05-30T14:43:26.429Z,2.10
2019-05-30T14:45:58.035Z,2.60
2019-05-30T14:48:29.650Z,2.30
2019-05-30T14:51:01.267Z,2.30
2019-05-30T14:53:32.868Z,2.30
2019-05-30T14:56:05.019Z,2.50
2019-05-30T14:58:36.648Z,2.50
2019-05-30T15:01:09.341Z,2.60
2019-05-30T15:03:40.959Z,2.30
2019-05-30T15:06:15.338Z,2.50
2019-05-30T15:08:46.096Z,2.40
2019-05-30T15:11:17.733Z,2.30
2019-05-30T15:13:49.503Z,2.43
2019-05-30T15:16:21.173Z,2.03
2019-05-30T15:18:52.994Z,2.47
2019-05-30T15:21:24.618Z,2.40
2019-05-30T15:26:46.154Z,2.50
2019-05-30T15:29:17.764Z,2.40
2019-05-30T15:31:50.471Z,2.17
2019-05-30T15:34:22.032Z,3.20
2019-05-30T15:36:53.647Z,3.07
2019-05-30T15:39:33.189Z,2.40
2019-05-30T15:41:58.573Z,2.77
2019-05-30T15:44:30.261Z,2.90
2019-05-30T15:47:01.983Z,2.70
2019-05-30T15:49:33.587Z,2.67
2019-05-30T15:52:05.229Z,2.57
2019-05-30T15:54:37.042Z,2.23
2019-05-30T15:57:09.195Z,2.40
2019-05-30T15:59:40.805Z,2.60
2019-05-30T16:02:12.701Z,2.60
2019-05-30T16:04:46.945Z,2.80
2019-05-30T16:07:18.839Z,2.50
2019-05-30T16:09:50.399Z,2.90
2019-05-30T16:12:22.037Z,2.77
2019-05-30T16:14:53.595Z,2.90
2019-05-30T16:17:27.947Z,2.60
2019-05-30T16:19:59.537Z,2.90
2019-05-30T16:22:31.169Z,2.57
2019-05-30T16:25:02.834Z,2.70
2019-05-30T16:27:34.664Z,2.87
2019-05-30T16:30:08.835Z,2.50
2019-05-30T16:32:40.814Z,2.43
2019-05-30T16:35:12.486Z,3.00
2019-05-30T16:37:44.083Z,2.53
2019-05-30T16:40:18.303Z,2.70
2019-05-30T16:42:49.965Z,2.90
2019-05-30T16:45:24.907Z,2.63
2019-05-30T16:47:55.145Z,3.40
2019-05-30T16:50:28.277Z,2.60
2019-05-30T16:52:59.998Z,3.10
2019-05-30T16:55:31.633Z,2.73
2019-05-30T16:58:03.364Z,3.30
2019-05-30T17:00:35.127Z,3.10
2019-05-30T17:03:07.355Z,3.00
2019-05-30T17:05:39.152Z,2.80
2019-05-30T17:08:12.312Z,3.40
2019-05-30T17:10:44.566Z,2.90
2019-05-30T17:13:17.679Z,2.70
2019-05-30T17:15:49.741Z,2.77
2019-05-30T17:18:22.324Z,2.90
2019-05-30T17:20:55.968Z,3.10
2019-05-30T17:23:27.607Z,2.70
2019-05-30T17:25:59.217Z,3.37
2019-05-30T17:28:31.027Z,3.40
2019-05-30T17:31:04.381Z,3.30
2019-05-30T17:33:36.169Z,3.27
2019-05-30T17:36:07.842Z,3.20
2019-05-30T17:38:39.447Z,3.23
2019-05-30T17:41:11.105Z,3.50
2019-05-30T17:43:43.053Z,3.43
2019-05-30T17:46:16.744Z,3.67
2019-05-30T17:48:48.097Z,3.67
2019-05-30T17:51:19.824Z,3.67
2019-05-30T17:53:51.446Z,3.20
2019-05-30T17:56:24.012Z,3.50
2019-05-30T17:58:55.698Z,3.37
2019-05-30T18:01:28.194Z,3.60
2019-05-30T18:04:00.133Z,3.10
2019-05-30T18:06:31.723Z,3.30
2019-05-30T18:09:04.587Z,3.37
2019-05-30T18:11:36.294Z,3.10
2019-05-30T18:14:07.929Z,2.80
2019-05-30T18:16:39.512Z,2.80
2019-05-30T18:19:11.131Z,3.20
2019-05-30T18:21:42.710Z,3.40
2019-05-30T18:24:14.305Z,4.57
2019-05-30T18:26:45.922Z,3.80
2019-05-30T18:29:18.995Z,4.10
2019-05-30T18:31:50.876Z,3.77
2019-05-30T18:34:22.477Z,3.70
2019-05-30T18:36:54.096Z,3.37
2019-05-30T18:39:26.608Z,3.40
2019-05-30T18:41:58.424Z,3.60
2019-05-30T18:44:32.742Z,3.40
2019-05-30T18:47:03.480Z,3.40
2019-05-30T18:49:35.086Z,3.37
2019-05-30T18:52:06.695Z,3.70
2019-05-30T18:54:38.259Z,3.90
2019-05-30T18:57:09.871Z,3.57
2019-05-30T18:59:41.482Z,3.10
2019-05-30T19:02:13.076Z,3.50
2019-05-30T19:04:44.692Z,3.13
2019-05-30T19:07:16.317Z,3.00
2019-05-30T19:09:47.951Z,3.00
2019-05-30T19:12:19.557Z,3.00
2019-05-30T19:14:51.131Z,2.90
2019-05-30T19:17:22.810Z,2.93
2019-05-30T19:19:54.412Z,2.57
2019-05-30T19:22:26.071Z,2.63
2019-05-30T19:24:57.709Z,7.27
2019-05-30T19:27:32.397Z,4.20
2019-05-30T19:30:02.655Z,2.93
2019-05-30T19:32:35.074Z,3.23
2019-05-30T19:35:07.682Z,3.40
2019-05-30T19:37:40.300Z,10.27
2019-05-30T19:40:13.770Z,23.13
2019-05-30T19:42:45.460Z,6.90
2019-05-30T19:45:18.044Z,3.90
2019-05-30T19:47:49.669Z,3.30
2019-05-30T19:50:21.388Z,3.37
2019-05-30T19:52:52.971Z,3.40
2019-05-30T19:55:24.592Z,3.60
2019-05-30T19:57:56.198Z,3.40
2019-05-30T20:00:29.765Z,4.00
2019-05-30T20:03:01.628Z,4.40
2019-05-30T20:05:34.448Z,4.57
2019-05-30T20:08:06.385Z,4.07
2019-05-30T20:10:39.126Z,3.87
2019-05-30T20:13:10.909Z,3.57
2019-05-30T20:15:43.024Z,3.60
2019-05-30T20:18:14.682Z,4.00
2019-05-30T20:20:56.980Z,4.03
2019-05-30T20:23:20.798Z,4.27
2019-05-30T20:25:52.515Z,13.77
2019-05-30T20:28:24.220Z,11.67
2019-05-30T20:30:55.846Z,5.67
2019-05-30T20:33:27.500Z,9.70
2019-05-30T20:35:59.272Z,36.97
2019-05-30T20:38:30.872Z,5.73
2019-05-30T20:41:02.532Z,5.60
2019-05-30T20:43:34.948Z,28.83
2019-05-30T20:46:20.305Z,21.30
2019-05-30T20:48:42.785Z,22.80
2019-05-30T20:51:21.228Z,23.43
2019-05-30T20:53:47.646Z,12.10
2019-05-30T20:56:19.413Z,14.67
2019-05-30T20:58:51.064Z,19.97
2019-05-30T21:01:22.686Z,17.90
2019-05-30T21:03:54.301Z,17.33
2019-05-30T21:06:25.972Z,10.37
2019-05-30T21:08:58.177Z,10.23
2019-05-30T21:11:31.669Z,6.30
2019-05-30T21:14:04.678Z,5.47
2019-05-30T21:16:37.623Z,5.00
2019-05-30T21:19:09.258Z,5.03
2019-05-30T21:21:42.511Z,4.90
2019-05-30T21:24:14.202Z,4.70
2019-05-30T21:26:46.900Z,4.57
2019-05-30T21:29:18.622Z,4.97
2019-05-30T21:31:50.302Z,4.90
2019-05-30T21:34:21.909Z,5.37
2019-05-30T21:36:53.511Z,5.40
2019-05-30T21:39:25.130Z,5.43
2019-05-30T21:41:56.757Z,5.47
2019-05-30T21:44:28.345Z,4.13
2019-05-30T21:46:59.979Z,4.00
2019-05-30T21:49:31.697Z,4.40
2019-05-30T21:52:03.338Z,4.87
2019-05-30T21:54:34.941Z,5.50
2019-05-30T21:57:06.573Z,4.90
2019-05-30T21:59:38.172Z,5.10
2019-05-30T22:02:10.324Z,4.63
2019-05-30T22:04:42.501Z,5.40
2019-05-30T22:07:14.200Z,5.10
2019-05-30T22:09:45.788Z,4.73
2019-05-30T22:12:17.387Z,4.67
2019-05-30T22:14:49.869Z,4.70
2019-05-30T22:17:21.569Z,4.30
2019-05-30T22:19:53.141Z,4.40
2019-05-30T22:22:24.733Z,4.30
2019-05-30T22:24:56.289Z,3.97
2019-05-30T22:27:27.896Z,4.40
2019-05-30T22:30:00.568Z,4.40
2019-05-30T22:32:32.164Z,4.00
2019-05-30T22:35:03.805Z,4.07
2019-05-30T22:37:35.469Z,4.63
2019-05-30T22:40:07.352Z,4.47
2019-05-30T22:42:39.004Z,3.97
2019-05-30T22:45:11.099Z,4.10
2019-05-30T22:47:42.668Z,4.33
2019-05-30T22:50:14.252Z,4.60
2019-05-30T22:52:46.924Z,4.40
2019-05-30T22:55:18.500Z,4.70
2019-05-30T22:57:50.385Z,4.47
2019-05-30T23:00:22.102Z,4.47
2019-05-30T23:02:54.071Z,4.73
2019-05-30T23:05:25.680Z,4.60
2019-05-30T23:07:57.255Z,4.40
2019-05-30T23:10:28.819Z,4.20
2019-05-30T23:13:01.712Z,4.50
2019-05-30T23:15:33.305Z,4.50
2019-05-30T23:18:04.873Z,4.43
2019-05-30T23:20:36.463Z,4.80
2019-05-30T23:23:08.090Z,4.73
2019-05-30T23:25:39.667Z,5.07
2019-05-30T23:28:12.350Z,4.67
2019-05-30T23:30:43.948Z,4.60
2019-05-30T23:33:15.503Z,4.10
2019-05-30T23:35:48.115Z,4.57
2019-05-30T23:38:19.741Z,5.00
2019-05-30T23:40:51.334Z,4.50
2019-05-30T23:43:22.895Z,4.80
2019-05-30T23:45:55.674Z,4.97
2019-05-30T23:48:27.442Z,4.93
2019-05-30T23:51:00.046Z,5.00
2019-05-30T23:53:31.713Z,5.20
2019-05-30T23:56:04.485Z,4.90
2019-05-30T23:58:36.122Z,5.07
